Time;durP1;ratioP1;P1;durP2;ratioP2;P2;SDS_P1;SDS_P2;PMS_P1;PMS_P2;Temp;Humidity;BMP_temperature;BMP_pressure;BME280_temperature;BME280_humidity;BME280_pressure;Samples;Min_cycle;Max_cycle;Signal;HPM_P1;HPM_P2
2020/12/10 00:01:57;;;;;;;13.37;8.73;;;;;;;;;;5054374;28;20545;-71
2020/12/10 00:04:23;;;;;;;13.93;9.20;;;;;;;;;;5055368;28;20429;-71
2020/12/10 00:06:49;;;;;;;15.03;9.80;;;;;;;;;;5054674;28;20461;-71
2020/12/10 00:09:15;;;;;;;13.00;9.10;;;;;;;;;;5055527;28;20449;-72
2020/12/10 00:11:41;;;;;;;14.07;8.50;;;;;;;;;;5036296;28;20505;-71
2020/12/10 00:14:07;;;;;;;19.03;8.30;;;;;;;;;;5053584;28;20513;-70
2020/12/10 00:16:33;;;;;;;16.27;9.47;;;;;;;;;;5054334;28;20402;-70
2020/12/10 00:18:59;;;;;;;15.57;8.87;;;;;;;;;;5055292;28;20414;-71
2020/12/10 00:21:25;;;;;;;13.60;8.60;;;;;;;;;;5055333;28;20432;-71
2020/12/10 00:23:51;;;;;;;16.10;10.00;;;;;;;;;;5054330;28;20429;-71
2020/12/10 00:26:18;;;;;;;12.17;7.73;;;;;;;;;;5054965;28;20405;-71
2020/12/10 00:28:44;;;;;;;15.30;9.20;;;;;;;;;;5053929;28;20535;-72
2020/12/10 00:31:10;;;;;;;11.40;8.13;;;;;;;;;;5036823;28;20958;-71
2020/12/10 00:33:37;;;;;;;15.17;9.00;;;;;;;;;;5069845;28;20478;-71
2020/12/10 00:36:03;;;;;;;17.07;9.57;;;;;;;;;;5075124;28;20748;-71
2020/12/10 00:38:29;;;;;;;14.70;8.90;;;;;;;;;;5057766;28;20465;-71
2020/12/10 00:40:55;;;;;;;12.73;8.53;;;;;;;;;;5053407;28;20437;-71
2020/12/10 00:43:22;;;;;;;14.80;9.70;;;;;;;;;;5066911;28;20429;-71
2020/12/10 00:45:48;;;;;;;14.07;9.07;;;;;;;;;;5058228;28;20433;-71
2020/12/10 00:48:14;;;;;;;16.30;9.00;;;;;;;;;;5053269;28;20817;-71
2020/12/10 00:50:40;;;;;;;13.23;8.83;;;;;;;;;;5055016;28;20460;-71
2020/12/10 00:53:06;;;;;;;16.17;8.47;;;;;;;;;;5053511;28;20859;-71
2020/12/10 00:55:32;;;;;;;13.40;8.73;;;;;;;;;;5054402;28;20517;-71
2020/12/10 00:57:58;;;;;;;15.67;11.03;;;;;;;;;;5052519;28;20505;-71
2020/12/10 01:00:24;;;;;;;14.87;9.20;;;;;;;;;;5054180;28;20934;-71
2020/12/10 01:02:50;;;;;;;13.60;9.33;;;;;;;;;;5053171;28;20508;-71
2020/12/10 01:05:16;;;;;;;17.87;9.80;;;;;;;;;;5054163;28;20763;-71
2020/12/10 01:07:42;;;;;;;12.80;8.17;;;;;;;;;;5053463;28;20418;-71
2020/12/10 01:10:08;;;;;;;13.10;9.30;;;;;;;;;;5036071;28;20413;-71
2020/12/10 01:12:34;;;;;;;15.30;9.27;;;;;;;;;;5053009;28;20432;-71
2020/12/10 01:15:00;;;;;;;13.33;8.03;;;;;;;;;;5054005;28;20849;-71
2020/12/10 01:17:26;;;;;;;10.77;8.30;;;;;;;;;;5052825;28;20906;-71
2020/12/10 01:19:52;;;;;;;16.73;11.07;;;;;;;;;;5053621;28;20416;-71
2020/12/10 01:22:18;;;;;;;12.30;9.17;;;;;;;;;;5055064;28;20494;-71
2020/12/10 01:24:44;;;;;;;14.30;8.27;;;;;;;;;;5073725;28;20405;-71
2020/12/10 01:27:10;;;;;;;15.87;8.93;;;;;;;;;;5068198;28;20397;-71
2020/12/10 01:29:36;;;;;;;17.33;10.30;;;;;;;;;;5034016;28;20451;-71
2020/12/10 01:32:02;;;;;;;12.40;8.47;;;;;;;;;;5034410;28;20429;-71
2020/12/10 01:34:28;;;;;;;13.20;8.37;;;;;;;;;;5073559;28;20951;-71
2020/12/10 01:36:54;;;;;;;16.77;9.07;;;;;;;;;;5073418;28;20393;-75
2020/12/10 01:39:20;;;;;;;12.40;9.37;;;;;;;;;;5053190;28;20961;-71
2020/12/10 01:41:46;;;;;;;12.60;9.37;;;;;;;;;;5053355;28;20433;-71
2020/12/10 01:44:14;;;;;;;19.70;9.70;;;;;;;;;;5070588;28;20425;-71
2020/12/10 01:46:40;;;;;;;16.17;9.33;;;;;;;;;;5068793;28;20422;-71
2020/12/10 01:49:07;;;;;;;13.37;8.70;;;;;;;;;;5051364;28;20469;-71
2020/12/10 01:51:33;;;;;;;14.83;8.60;;;;;;;;;;5053210;28;20572;-71
2020/12/10 01:53:59;;;;;;;16.23;10.20;;;;;;;;;;5051122;28;20422;-72
2020/12/10 01:56:25;;;;;;;10.90;7.40;;;;;;;;;;5053305;28;20755;-71
2020/12/10 01:58:52;;;;;;;12.97;8.70;;;;;;;;;;5065701;28;20424;-71
2020/12/10 02:01:18;;;;;;;14.93;9.00;;;;;;;;;;5073106;28;20428;-71
2020/12/10 02:03:44;;;;;;;14.67;9.20;;;;;;;;;;5058982;28;20461;-71
2020/12/10 02:06:10;;;;;;;11.70;8.10;;;;;;;;;;5053080;28;20459;-71
2020/12/10 02:08:40;;;;;;;16.87;9.73;;;;;;;;;;5051969;28;20513;-71
2020/12/10 02:11:10;;;;;;;13.13;8.60;;;;;;;;;;5053055;28;20418;-71
2020/12/10 02:13:36;;;;;;;12.50;8.00;;;;;;;;;;5052315;28;20513;-71
2020/12/10 02:16:02;;;;;;;12.93;8.33;;;;;;;;;;5053245;28;20414;-71
2020/12/10 02:18:28;;;;;;;12.80;8.57;;;;;;;;;;5055323;28;20429;-71
2020/12/10 02:20:55;;;;;;;14.97;8.10;;;;;;;;;;5073258;28;20431;-71
2020/12/10 02:23:21;;;;;;;14.97;9.60;;;;;;;;;;5067726;28;20942;-71
2020/12/10 02:25:47;;;;;;;16.13;9.57;;;;;;;;;;5035119;28;20456;-71
2020/12/10 02:28:15;;;;;;;13.73;9.67;;;;;;;;;;5046275;28;20465;-71
2020/12/10 02:30:42;;;;;;;14.43;9.80;;;;;;;;;;5074571;28;20514;-71
2020/12/10 02:33:09;;;;;;;15.53;10.73;;;;;;;;;;5074084;28;20496;-71
2020/12/10 02:35:36;;;;;;;16.77;9.10;;;;;;;;;;5057114;28;20826;-71
2020/12/10 02:38:04;;;;;;;16.97;9.63;;;;;;;;;;5056091;28;20401;-71
2020/12/10 02:40:31;;;;;;;16.17;9.17;;;;;;;;;;5037306;28;20411;-71
2020/12/10 02:42:58;;;;;;;14.60;9.40;;;;;;;;;;5036956;28;20399;-75
2020/12/10 02:45:24;;;;;;;14.83;9.30;;;;;;;;;;5057012;28;20449;-71
2020/12/10 02:47:50;;;;;;;16.03;8.93;;;;;;;;;;5054558;28;20464;-71
2020/12/10 02:50:16;;;;;;;14.00;8.20;;;;;;;;;;5055243;28;20457;-71
2020/12/10 02:52:43;;;;;;;16.50;8.87;;;;;;;;;;5056897;28;20437;-71
2020/12/10 02:55:09;;;;;;;13.83;8.33;;;;;;;;;;5055773;28;20830;-71
2020/12/10 02:57:35;;;;;;;15.20;8.60;;;;;;;;;;5038770;28;20488;-71
2020/12/10 03:00:02;;;;;;;12.73;8.20;;;;;;;;;;5055858;28;20509;-71
2020/12/10 03:02:28;;;;;;;14.53;8.40;;;;;;;;;;5055928;28;20425;-71
2020/12/10 03:04:54;;;;;;;12.77;7.73;;;;;;;;;;5069855;28;20535;-71
2020/12/10 03:07:20;;;;;;;11.90;7.30;;;;;;;;;;5076516;28;20421;-71
2020/12/10 03:09:46;;;;;;;12.97;8.10;;;;;;;;;;5061577;28;21054;-71
2020/12/10 03:12:12;;;;;;;11.30;7.33;;;;;;;;;;5056608;28;20509;-71
2020/12/10 03:14:38;;;;;;;14.53;9.37;;;;;;;;;;5055396;28;20433;-71
2020/12/10 03:17:04;;;;;;;13.60;8.13;;;;;;;;;;5055588;28;20429;-71
2020/12/10 03:19:30;;;;;;;14.67;9.20;;;;;;;;;;5055274;28;20469;-71
2020/12/10 03:21:56;;;;;;;13.20;7.90;;;;;;;;;;5056438;28;20421;-71
2020/12/10 03:24:22;;;;;;;16.23;8.83;;;;;;;;;;5046628;28;20434;-71
2020/12/10 03:26:48;;;;;;;16.87;9.53;;;;;;;;;;5036227;28;20407;-71
2020/12/10 03:29:14;;;;;;;14.47;9.17;;;;;;;;;;5051197;28;20467;-71
2020/12/10 03:31:40;;;;;;;15.03;8.53;;;;;;;;;;5075847;28;20460;-71
2020/12/10 03:34:06;;;;;;;12.80;8.80;;;;;;;;;;5067742;28;20462;-71
2020/12/10 03:36:47;;;;;;;13.80;8.30;;;;;;;;;;5056399;28;20452;-71
2020/12/10 03:39:13;;;;;;;14.37;8.03;;;;;;;;;;5054335;28;20533;-71
2020/12/10 03:41:39;;;;;;;14.63;9.00;;;;;;;;;;5055668;28;20475;-71
2020/12/10 03:44:05;;;;;;;13.67;8.40;;;;;;;;;;5054332;28;20437;-71
2020/12/10 03:46:31;;;;;;;11.70;8.73;;;;;;;;;;5055725;28;20402;-71
2020/12/10 03:48:57;;;;;;;13.90;8.40;;;;;;;;;;5051390;28;21026;-71
2020/12/10 03:51:23;;;;;;;13.47;8.20;;;;;;;;;;5052628;28;20811;-71
2020/12/10 03:53:49;;;;;;;18.43;7.80;;;;;;;;;;5055118;28;20433;-71
2020/12/10 03:56:15;;;;;;;11.20;8.03;;;;;;;;;;5055783;28;20402;-71
2020/12/10 03:58:41;;;;;;;14.47;8.17;;;;;;;;;;5054587;28;20489;-70
2020/12/10 04:01:07;;;;;;;13.43;7.60;;;;;;;;;;5055407;28;20739;-71
2020/12/10 04:03:33;;;;;;;12.17;8.10;;;;;;;;;;5054236;28;20414;-70
2020/12/10 04:05:59;;;;;;;12.60;7.87;;;;;;;;;;5037715;28;20394;-72
2020/12/10 04:08:25;;;;;;;13.93;9.20;;;;;;;;;;5055583;28;20515;-72
2020/12/10 04:10:51;;;;;;;9.43;7.27;;;;;;;;;;5073744;28;20582;-71
2020/12/10 04:13:17;;;;;;;16.37;9.20;;;;;;;;;;5075186;28;20478;-71
2020/12/10 04:15:43;;;;;;;14.07;7.60;;;;;;;;;;5055382;28;20458;-71
2020/12/10 04:18:09;;;;;;;11.33;7.83;;;;;;;;;;5055120;28;20487;-72
2020/12/10 04:20:35;;;;;;;12.63;8.27;;;;;;;;;;5054048;28;21035;-71
2020/12/10 04:23:01;;;;;;;13.17;8.30;;;;;;;;;;5055223;28;20930;-72
2020/12/10 04:25:27;;;;;;;11.17;6.60;;;;;;;;;;5053111;28;20433;-72
2020/12/10 04:27:53;;;;;;;11.20;7.70;;;;;;;;;;5055163;28;20410;-71
2020/12/10 04:30:21;;;;;;;12.43;8.60;;;;;;;;;;5054192;28;20442;-71
2020/12/10 04:32:47;;;;;;;13.13;7.60;;;;;;;;;;5055092;28;20412;-71
2020/12/10 04:35:13;;;;;;;15.50;8.43;;;;;;;;;;5066747;28;20509;-72
2020/12/10 04:37:41;;;;;;;10.23;7.63;;;;;;;;;;5074974;28;20421;-71
2020/12/10 04:40:07;;;;;;;16.13;8.13;;;;;;;;;;5072790;28;20431;-72
2020/12/10 04:42:33;;;;;;;15.43;8.00;;;;;;;;;;5074948;28;20428;-72
2020/12/10 04:44:59;;;;;;;11.30;7.43;;;;;;;;;;5062553;28;20503;-71
2020/12/10 04:47:28;;;;;;;10.90;8.00;;;;;;;;;;5053907;28;20405;-70
2020/12/10 04:49:55;;;;;;;10.33;6.30;;;;;;;;;;5057281;28;20464;-72
2020/12/10 04:52:22;;;;;;;11.20;6.80;;;;;;;;;;5057276;28;20457;-71
2020/12/10 04:54:48;;;;;;;12.93;7.23;;;;;;;;;;5053090;28;20475;-71
2020/12/10 04:57:16;;;;;;;13.20;7.63;;;;;;;;;;5053692;28;20445;-71
2020/12/10 04:59:42;;;;;;;12.23;8.37;;;;;;;;;;5054164;28;20434;-71
2020/12/10 05:02:11;;;;;;;16.00;8.53;;;;;;;;;;5054256;28;20426;-71
2020/12/10 05:04:38;;;;;;;10.97;7.17;;;;;;;;;;5055417;28;20468;-71
2020/12/10 05:07:04;;;;;;;15.43;8.57;;;;;;;;;;5074507;28;20821;-72
2020/12/10 05:09:30;;;;;;;15.13;9.07;;;;;;;;;;5072061;28;20936;-70
2020/12/10 05:11:56;;;;;;;9.33;6.63;;;;;;;;;;5054167;28;20414;-71
2020/12/10 05:14:23;;;;;;;12.77;7.40;;;;;;;;;;5053779;28;20816;-69
2020/12/10 05:17:08;;;;;;;11.80;7.37;;;;;;;;;;5053961;28;20486;-72
2020/12/10 05:19:34;;;;;;;11.90;7.20;;;;;;;;;;5054374;28;20410;-70
2020/12/10 05:22:05;;;;;;;11.30;6.53;;;;;;;;;;5073927;28;20448;-71
2020/12/10 05:24:31;;;;;;;13.13;7.40;;;;;;;;;;5072109;28;20447;-70
2020/12/10 05:27:15;;;;;;;10.77;7.50;;;;;;;;;;5053993;28;20810;-72
2020/12/10 05:29:41;;;;;;;10.87;7.57;;;;;;;;;;5053183;28;20453;-71
2020/12/10 05:32:08;;;;;;;12.00;6.80;;;;;;;;;;5054068;28;20436;-71
2020/12/10 05:34:34;;;;;;;15.47;9.27;;;;;;;;;;5035163;28;20428;-70
2020/12/10 05:37:00;;;;;;;8.90;6.33;;;;;;;;;;5073751;28;20432;-71
2020/12/10 05:39:26;;;;;;;11.47;6.93;;;;;;;;;;5073715;28;20400;-71
2020/12/10 05:41:55;;;;;;;9.17;7.10;;;;;;;;;;5071445;28;20453;-71
2020/12/10 05:44:23;;;;;;;10.80;7.10;;;;;;;;;;5073640;28;20917;-71
2020/12/10 05:47:03;;;;;;;9.60;6.20;;;;;;;;;;5053397;28;20445;-71
2020/12/10 05:49:29;;;;;;;10.20;6.83;;;;;;;;;;5052602;28;20468;-71
2020/12/10 05:52:02;;;;;;;11.30;6.60;;;;;;;;;;5051112;28;20465;-70
2020/12/10 05:54:29;;;;;;;7.50;6.23;;;;;;;;;;5053171;28;20779;-71
2020/12/10 05:56:56;;;;;;;12.67;8.37;;;;;;;;;;5052420;28;20479;-72
2020/12/10 05:59:26;;;;;;;11.30;6.67;;;;;;;;;;5053661;28;20422;-72
2020/12/10 06:01:53;;;;;;;11.63;7.33;;;;;;;;;;5052373;28;20540;-72
2020/12/10 06:04:19;;;;;;;11.33;6.33;;;;;;;;;;5053217;28;20445;-72
2020/12/10 06:06:46;;;;;;;11.73;8.00;;;;;;;;;;5052344;28;20430;-72
2020/12/10 06:09:14;;;;;;;9.47;7.47;;;;;;;;;;5053064;28;20507;-72
2020/12/10 06:11:40;;;;;;;12.00;8.10;;;;;;;;;;5052043;28;20457;-71
2020/12/10 06:14:07;;;;;;;10.13;6.60;;;;;;;;;;5053081;28;20409;-72
2020/12/10 06:16:34;;;;;;;12.33;8.03;;;;;;;;;;5052388;28;20763;-71
2020/12/10 06:19:07;;;;;;;10.00;6.43;;;;;;;;;;5053085;28;20451;-71
2020/12/10 06:21:33;;;;;;;7.93;6.10;;;;;;;;;;5051133;28;20505;-71
2020/12/10 06:23:59;;;;;;;9.30;5.43;;;;;;;;;;5052390;28;20848;-71
2020/12/10 06:26:25;;;;;;;8.87;5.60;;;;;;;;;;5052227;28;20528;-71
2020/12/10 06:28:52;;;;;;;9.73;7.03;;;;;;;;;;5053181;28;20449;-72
2020/12/10 06:31:18;;;;;;;8.87;6.70;;;;;;;;;;5051845;28;20480;-71
2020/12/10 06:33:45;;;;;;;6.63;5.63;;;;;;;;;;5053182;28;20402;-72
2020/12/10 06:36:37;;;;;;;9.57;6.43;;;;;;;;;;5052260;28;20425;-71
2020/12/10 06:39:03;;;;;;;10.83;7.17;;;;;;;;;;5050158;28;20453;-72
2020/12/10 06:41:29;;;;;;;10.27;6.93;;;;;;;;;;5052464;28;20477;-72
2020/12/10 06:43:55;;;;;;;13.17;8.43;;;;;;;;;;5053180;28;20840;-72
2020/12/10 06:46:21;;;;;;;10.73;7.47;;;;;;;;;;5052019;28;20486;-72
2020/12/10 06:48:48;;;;;;;13.10;8.13;;;;;;;;;;5051725;28;20453;-71
2020/12/10 06:51:23;;;;;;;15.53;8.43;;;;;;;;;;5092249;22;20508;-87
2020/12/10 06:54:04;;;;;;;10.33;7.10;;;;;;;;;;5075227;28;20409;-87
2020/12/10 06:56:31;;;;;;;16.27;8.57;;;;;;;;;;5055608;28;20433;-87
2020/12/10 06:59:02;;;;;;;10.67;7.07;;;;;;;;;;5075751;28;20426;-87
2020/12/10 07:01:37;;;;;;;13.13;8.37;;;;;;;;;;5052535;28;20429;-87
2020/12/10 07:04:17;;;;;;;10.53;7.87;;;;;;;;;;5055928;28;20461;-87
2020/12/10 07:06:46;;;;;;;13.23;7.27;;;;;;;;;;5041838;28;20846;-87
2020/12/10 07:09:14;;;;;;;12.20;8.87;;;;;;;;;;5035856;28;20449;-86
2020/12/10 07:11:47;;;;;;;13.83;8.10;;;;;;;;;;5046826;28;20430;-87
2020/12/10 07:14:24;;;;;;;15.80;8.50;;;;;;;;;;5036468;28;20410;-87
2020/12/10 07:16:53;;;;;;;16.53;10.30;;;;;;;;;;5038046;28;20528;-86
2020/12/10 07:19:25;;;;;;;14.10;9.50;;;;;;;;;;5040514;28;20421;-86
2020/12/10 07:21:51;;;;;;;18.07;9.90;;;;;;;;;;5055366;28;20463;-86
2020/12/10 07:24:17;;;;;;;16.43;9.43;;;;;;;;;;5077926;28;20765;-86
2020/12/10 07:26:44;;;;;;;17.80;9.80;;;;;;;;;;5076910;28;20938;-87
2020/12/10 07:29:10;;;;;;;18.10;10.63;;;;;;;;;;5059605;28;20479;-86
2020/12/10 07:31:37;;;;;;;14.63;8.87;;;;;;;;;;5077662;28;20436;-86
2020/12/10 07:34:05;;;;;;;14.77;9.27;;;;;;;;;;5077944;28;20397;-87
2020/12/10 07:36:32;;;;;;;16.50;10.73;;;;;;;;;;5077143;28;20440;-86
2020/12/10 07:39:04;;;;;;;15.03;9.50;;;;;;;;;;5092724;28;20523;-87
2020/12/10 07:41:37;;;;;;;17.13;10.13;;;;;;;;;;5059410;28;20486;-86
2020/12/10 07:44:05;;;;;;;24.83;10.90;;;;;;;;;;5077484;28;20824;-86
2020/12/10 07:46:38;;;;;;;14.17;9.10;;;;;;;;;;5077080;28;20440;-87
2020/12/10 07:49:04;;;;;;;17.33;10.97;;;;;;;;;;5079446;28;20452;-86
2020/12/10 07:51:30;;;;;;;16.87;10.53;;;;;;;;;;5077002;28;20445;-86
2020/12/10 07:54:03;;;;;;;16.03;10.40;;;;;;;;;;5078228;28;20459;-86
2020/12/10 07:56:31;;;;;;;16.10;10.17;;;;;;;;;;5060564;28;20429;-87
2020/12/10 07:59:10;;;;;;;15.83;9.10;;;;;;;;;;5079150;28;20433;-87
2020/12/10 08:01:56;;;;;;;14.37;8.80;;;;;;;;;;5079724;28;20463;-86
2020/12/10 08:04:24;;;;;;;16.90;9.57;;;;;;;;;;5078795;28;20447;-87
2020/12/10 08:06:51;;;;;;;15.87;8.97;;;;;;;;;;5076457;28;20433;-86
2020/12/10 08:09:17;;;;;;;15.77;9.10;;;;;;;;;;5068895;28;20488;-86
2020/12/10 08:11:54;;;;;;;13.17;9.07;;;;;;;;;;5077583;28;20475;-87
2020/12/10 08:14:27;;;;;;;16.23;9.20;;;;;;;;;;5078838;28;20420;-86
2020/12/10 08:16:54;;;;;;;16.40;9.80;;;;;;;;;;5073391;28;20440;-87
2020/12/10 08:19:34;;;;;;;19.90;11.50;;;;;;;;;;5069115;28;20437;-87
2020/12/10 08:22:15;;;;;;;17.77;10.73;;;;;;;;;;5070393;28;20429;-87
2020/12/10 08:24:47;;;;;;;17.93;10.30;;;;;;;;;;5063468;28;20420;-87
2020/12/10 08:27:15;;;;;;;20.63;12.40;;;;;;;;;;5059256;28;20582;-88
2020/12/10 08:30:07;;;;;;;18.80;10.53;;;;;;;;;;5055769;28;20445;-87
2020/12/10 08:32:39;;;;;;;19.93;11.60;;;;;;;;;;5070585;28;20432;-86
2020/12/10 08:35:09;;;;;;;18.97;11.60;;;;;;;;;;5053161;28;20532;-87
2020/12/10 08:37:38;;;;;;;18.43;9.90;;;;;;;;;;5071497;28;20521;-85
2020/12/10 08:40:05;;;;;;;18.30;11.90;;;;;;;;;;5075107;28;20417;-85
2020/12/10 08:42:37;;;;;;;18.60;10.80;;;;;;;;;;5062300;28;20864;-86
2020/12/10 08:45:08;;;;;;;19.57;12.00;;;;;;;;;;5078179;28;20471;-86
2020/12/10 08:47:50;;;;;;;22.60;11.57;;;;;;;;;;5056976;28;20463;-85
2020/12/10 08:50:23;;;;;;;21.47;12.27;;;;;;;;;;5066073;28;20461;-86
2020/12/10 08:53:31;;;;;;;17.63;11.20;;;;;;;;;;5071173;28;20471;-86
2020/12/10 08:56:21;;;;;;;20.03;10.77;;;;;;;;;;5024419;28;20467;-86
2020/12/10 08:58:48;;;;;;;17.00;10.87;;;;;;;;;;5070579;28;21578;-86
2020/12/10 09:01:16;;;;;;;20.03;11.20;;;;;;;;;;5074986;28;20432;-86
2020/12/10 09:03:56;;;;;;;15.93;10.60;;;;;;;;;;5068949;28;20477;-85
2020/12/10 09:06:43;;;;;;;24.35;12.77;;;;;;;;;;5070371;28;20538;-84
2020/12/10 09:09:09;;;;;;;19.60;10.70;;;;;;;;;;5069430;28;20264;-84
2020/12/10 09:11:35;;;;;;;19.60;11.75;;;;;;;;;;5070756;28;20921;-88
2020/12/10 09:14:07;;;;;;;26.10;13.13;;;;;;;;;;5065955;28;20194;-88
2020/12/10 09:16:40;;;;;;;20.73;12.70;;;;;;;;;;5070669;28;20453;-85
2020/12/10 09:19:06;;;;;;;25.70;13.63;;;;;;;;;;5067117;28;20848;-86
2020/12/10 09:21:36;;;;;;;25.70;14.27;;;;;;;;;;5063934;28;20440;-88
2020/12/10 09:24:02;;;;;;;22.07;12.30;;;;;;;;;;5066134;28;21533;-86
2020/12/10 09:26:28;;;;;;;15.83;10.10;;;;;;;;;;5047779;28;20450;-87
2020/12/10 09:28:54;;;;;;;20.93;11.77;;;;;;;;;;5061022;28;20461;-88
2020/12/10 09:31:20;;;;;;;19.75;12.55;;;;;;;;;;5062510;28;20414;-88
2020/12/10 09:33:46;;;;;;;20.47;12.47;;;;;;;;;;5066606;28;20203;-87
2020/12/10 09:36:12;;;;;;;23.00;13.68;;;;;;;;;;5070385;28;20418;-86
2020/12/10 09:38:40;;;;;;;22.03;12.30;;;;;;;;;;5069101;28;20209;-86
2020/12/10 09:41:07;;;;;;;22.20;12.37;;;;;;;;;;5063464;28;20460;-90
2020/12/10 09:43:32;;;;;;;23.40;14.52;;;;;;;;;;5066342;28;20438;-86
2020/12/10 09:46:04;;;;;;;20.67;13.23;;;;;;;;;;5067139;28;20455;-87
2020/12/10 09:48:30;;;;;;;21.83;12.77;;;;;;;;;;5075277;28;20529;-87
2020/12/10 09:50:56;;;;;;;20.80;12.20;;;;;;;;;;5043006;28;800386;-86
2020/12/10 09:53:37;;;;;;;20.17;11.60;;;;;;;;;;5052405;28;20175;-88
2020/12/10 09:58:49;;;;;;;18.77;10.93;;;;;;;;;;5067828;28;20468;-88
2020/12/10 10:01:15;;;;;;;21.00;12.50;;;;;;;;;;5066496;28;20555;-88
2020/12/10 10:03:41;;;;;;;21.73;11.30;;;;;;;;;;5050283;28;20975;-86
2020/12/10 10:06:10;;;;;;;18.60;10.70;;;;;;;;;;5072646;28;21076;-86
2020/12/10 10:08:36;;;;;;;20.00;12.17;;;;;;;;;;5074721;28;20552;-88
2020/12/10 10:11:02;;;;;;;20.30;11.10;;;;;;;;;;5062105;28;20425;-85
2020/12/10 10:13:28;;;;;;;20.17;10.77;;;;;;;;;;5056870;28;20422;-85
2020/12/10 10:15:55;;;;;;;17.73;10.90;;;;;;;;;;5075753;28;20419;-85
2020/12/10 10:18:22;;;;;;;17.77;10.67;;;;;;;;;;5070414;28;20507;-85
2020/12/10 10:20:48;;;;;;;21.90;11.57;;;;;;;;;;5066008;28;20467;-84
2020/12/10 10:23:14;;;;;;;21.20;11.05;;;;;;;;;;5078465;28;20426;-84
2020/12/10 10:25:40;;;;;;;20.03;11.07;;;;;;;;;;5078788;28;20167;-86
2020/12/10 10:28:11;;;;;;;22.98;12.63;;;;;;;;;;5071444;28;20426;-86
2020/12/10 10:30:37;;;;;;;19.87;11.17;;;;;;;;;;5065654;28;20258;-85
2020/12/10 10:33:04;;;;;;;17.90;11.20;;;;;;;;;;5054212;28;20425;-86
2020/12/10 10:35:30;;;;;;;25.80;12.67;;;;;;;;;;5051746;28;20492;-86
2020/12/10 10:37:56;;;;;;;23.40;11.53;;;;;;;;;;5053767;28;20489;-86
2020/12/10 10:40:24;;;;;;;17.77;11.07;;;;;;;;;;5069499;28;20532;-89
2020/12/10 10:42:54;;;;;;;22.47;11.67;;;;;;;;;;5055501;28;20918;-86
2020/12/10 10:45:20;;;;;;;21.43;10.57;;;;;;;;;;5056433;28;20770;-87
2020/12/10 10:47:49;;;;;;;17.50;10.30;;;;;;;;;;5047186;28;20819;-89
2020/12/10 10:50:15;;;;;;;23.97;13.60;;;;;;;;;;5066552;28;20461;-86
2020/12/10 10:53:01;;;;;;;23.40;11.97;;;;;;;;;;5058851;28;20421;-87
2020/12/10 10:55:28;;;;;;;21.00;12.77;;;;;;;;;;5061667;28;20439;-87
2020/12/10 11:01:06;;;;;;;20.93;12.13;;;;;;;;;;5064901;28;20852;-87
2020/12/10 11:03:50;;;;;;;22.40;12.93;;;;;;;;;;5078861;28;20417;-87
2020/12/10 11:06:22;;;;;;;21.07;11.87;;;;;;;;;;5053897;28;20408;-89
2020/12/10 11:09:04;;;;;;;20.77;11.97;;;;;;;;;;5074762;28;20461;-88
2020/12/10 11:11:57;;;;;;;23.87;11.67;;;;;;;;;;5056978;28;20885;-88
2020/12/10 11:14:45;;;;;;;24.60;13.40;;;;;;;;;;5040008;28;20406;-87
2020/12/10 11:17:11;;;;;;;27.60;14.90;;;;;;;;;;5050790;28;20449;-87
2020/12/10 11:19:37;;;;;;;23.03;13.27;;;;;;;;;;5072238;28;20417;-84
2020/12/10 11:22:03;;;;;;;17.63;11.43;;;;;;;;;;5071417;28;20439;-88
2020/12/10 11:24:29;;;;;;;21.33;12.17;;;;;;;;;;5074894;28;20492;-87
2020/12/10 11:26:56;;;;;;;26.13;14.03;;;;;;;;;;5091258;28;20421;-87
2020/12/10 11:29:22;;;;;;;25.20;12.70;;;;;;;;;;5095028;28;20444;-87
2020/12/10 11:31:49;;;;;;;21.87;12.17;;;;;;;;;;5093071;28;20429;-85
2020/12/10 11:34:17;;;;;;;25.60;13.13;;;;;;;;;;5078718;28;20409;-86
2020/12/10 11:36:45;;;;;;;26.23;14.73;;;;;;;;;;5073571;28;20489;-86
2020/12/10 11:39:11;;;;;;;23.80;11.80;;;;;;;;;;5074241;28;20404;-85
2020/12/10 11:41:40;;;;;;;23.73;13.40;;;;;;;;;;5067661;28;20426;-87
2020/12/10 11:44:06;;;;;;;26.83;13.33;;;;;;;;;;5066998;28;20409;-86
2020/12/10 11:46:32;;;;;;;23.67;12.83;;;;;;;;;;5090416;28;20417;-86
2020/12/10 11:48:58;;;;;;;22.57;12.07;;;;;;;;;;5074889;28;20449;-85
2020/12/10 11:51:25;;;;;;;20.97;12.40;;;;;;;;;;5095548;28;20425;-84
2020/12/10 11:53:53;;;;;;;23.30;12.03;;;;;;;;;;5077379;28;21948;-87
2020/12/10 11:56:22;;;;;;;20.43;11.20;;;;;;;;;;5065036;28;20422;-86
2020/12/10 11:58:51;;;;;;;22.70;13.33;;;;;;;;;;5087764;28;20449;-89
2020/12/10 12:01:38;;;;;;;;;;;;;;;;;;;;;
2020/12/10 12:04:10;;;;;;;18.77;11.53;;;;;;;;;;5087003;28;20517;-88
2020/12/10 12:09:36;;;;;;;23.47;13.30;;;;;;;;;;5039266;28;21000;-85
2020/12/10 12:12:28;;;;;;;25.27;13.20;;;;;;;;;;5045342;28;20419;-88
2020/12/10 12:14:55;;;;;;;23.90;13.23;;;;;;;;;;5069741;28;20441;-87
2020/12/10 12:17:21;;;;;;;26.10;15.40;;;;;;;;;;5062349;28;20516;-87
2020/12/10 12:19:47;;;;;;;24.90;13.43;;;;;;;;;;5083402;28;20429;-87
2020/12/10 12:22:16;;;;;;;28.43;16.17;;;;;;;;;;5089146;28;20445;-87
2020/12/10 12:24:42;;;;;;;25.93;13.00;;;;;;;;;;5078406;28;20925;-88
2020/12/10 12:27:08;;;;;;;22.80;12.07;;;;;;;;;;5062100;28;20452;-89
2020/12/10 12:29:35;;;;;;;21.67;11.53;;;;;;;;;;5069833;28;20453;-88
2020/12/10 12:32:06;;;;;;;23.50;13.60;;;;;;;;;;5067019;28;20448;-88
2020/12/10 12:34:32;;;;;;;32.50;19.50;;;;;;;;;;5085166;28;20412;-89
2020/12/10 12:36:58;;;;;;;24.80;14.60;;;;;;;;;;5082206;28;20421;-91
2020/12/10 12:39:27;;;;;;;23.30;13.20;;;;;;;;;;5067850;28;20506;-88
2020/12/10 12:41:59;;;;;;;27.50;11.13;;;;;;;;;;5084939;28;20416;-88
2020/12/10 12:44:26;;;;;;;21.80;11.83;;;;;;;;;;5091574;28;20405;-87
2020/12/10 12:46:52;;;;;;;20.23;11.40;;;;;;;;;;5073578;28;20409;-88
2020/12/10 12:49:18;;;;;;;24.43;13.00;;;;;;;;;;5094695;28;20476;-86
2020/12/10 12:51:50;;;;;;;20.50;11.97;;;;;;;;;;5086309;28;20433;-86
2020/12/10 12:54:16;;;;;;;22.37;12.50;;;;;;;;;;5083211;28;20444;-87
2020/12/10 12:56:45;;;;;;;26.40;11.63;;;;;;;;;;5082485;28;20442;-88
2020/12/10 12:59:14;;;;;;;21.20;11.00;;;;;;;;;;5075118;28;20441;-88
2020/12/10 13:01:40;;;;;;;20.03;11.70;;;;;;;;;;5072261;28;20417;-86
2020/12/10 13:04:42;;;;;;;23.67;13.57;;;;;;;;;;5073392;28;20422;-85
2020/12/10 13:07:08;;;;;;;22.17;13.00;;;;;;;;;;5084421;28;20453;-85
2020/12/10 13:09:36;;;;;;;24.27;13.27;;;;;;;;;;5104274;28;20465;-86
2020/12/10 13:12:10;;;;;;;22.47;13.13;;;;;;;;;;5069568;28;20903;-86
2020/12/10 13:14:44;;;;;;;21.07;12.70;;;;;;;;;;5093884;28;20473;-86
2020/12/10 13:17:23;;;;;;;;;;;;;;;;;;;;;
2020/12/10 13:19:59;;;;;;;21.20;13.00;;;;;;;;;;5093179;28;20535;-87
2020/12/10 13:22:25;;;;;;;23.73;11.73;;;;;;;;;;5083163;28;20419;-86
2020/12/10 13:24:54;;;;;;;20.73;12.13;;;;;;;;;;5076471;28;20455;-86
2020/12/10 13:27:20;;;;;;;26.30;12.73;;;;;;;;;;5077515;28;20442;-87
2020/12/10 13:29:48;;;;;;;21.83;11.77;;;;;;;;;;5094064;28;20481;-86
2020/12/10 13:32:22;;;;;;;25.77;12.67;;;;;;;;;;5077114;28;20531;-85
2020/12/10 13:34:48;;;;;;;20.90;11.60;;;;;;;;;;5078474;28;20417;-86
2020/12/10 13:37:17;;;;;;;25.50;13.07;;;;;;;;;;5084679;28;20433;-86
2020/12/10 13:39:45;;;;;;;20.10;11.70;;;;;;;;;;5094286;28;20425;-86
2020/12/10 13:42:11;;;;;;;22.27;11.40;;;;;;;;;;5094160;28;20440;-87
2020/12/10 13:44:37;;;;;;;16.83;10.43;;;;;;;;;;5088926;28;20444;-85
2020/12/10 13:47:27;;;;;;;;;;;;;;;;;;;;;
2020/12/10 13:50:02;;;;;;;25.20;12.43;;;;;;;;;;5092594;28;20485;-86
2020/12/10 13:52:28;;;;;;;25.60;13.67;;;;;;;;;;5064022;28;21559;-86
2020/12/10 13:55:10;;;;;;;22.50;12.23;;;;;;;;;;5081919;28;21241;-87
2020/12/10 13:57:39;;;;;;;41.93;23.00;;;;;;;;;;5070854;28;20557;-85
2020/12/10 14:00:11;;;;;;;24.10;12.40;;;;;;;;;;5057516;28;20490;-85
2020/12/10 14:05:58;;;;;;;17.70;11.30;;;;;;;;;;4976367;28;20434;-86
2020/12/10 14:08:33;;;;;;;24.27;12.40;;;;;;;;;;4967070;28;20457;-85
2020/12/10 14:11:00;;;;;;;19.67;11.33;;;;;;;;;;4981453;28;20433;-86
2020/12/10 14:13:26;;;;;;;23.03;12.50;;;;;;;;;;4974435;28;20456;-85
2020/12/10 14:15:52;;;;;;;20.53;11.97;;;;;;;;;;5025726;22;20497;-72
2020/12/10 14:18:19;;;;;;;25.80;13.87;;;;;;;;;;5066191;28;20439;-73
2020/12/10 14:20:45;;;;;;;27.53;13.07;;;;;;;;;;5071712;28;20409;-72
2020/12/10 14:23:11;;;;;;;24.13;13.00;;;;;;;;;;5061610;28;20416;-72
2020/12/10 14:25:37;;;;;;;25.50;13.63;;;;;;;;;;5072036;28;20413;-72
2020/12/10 14:28:03;;;;;;;22.57;11.90;;;;;;;;;;5069830;28;20512;-72
2020/12/10 14:30:29;;;;;;;21.07;12.17;;;;;;;;;;5066075;28;20552;-72
2020/12/10 14:32:55;;;;;;;21.37;12.30;;;;;;;;;;5063690;28;20949;-72
2020/12/10 14:35:21;;;;;;;24.53;13.97;;;;;;;;;;5066765;28;20924;-73
2020/12/10 14:37:47;;;;;;;25.33;12.50;;;;;;;;;;5063360;28;20532;-73
2020/12/10 14:40:13;;;;;;;27.23;13.03;;;;;;;;;;5064299;28;20475;-73
2020/12/10 14:42:39;;;;;;;23.07;12.20;;;;;;;;;;5059641;28;20432;-72
2020/12/10 14:45:05;;;;;;;24.50;13.23;;;;;;;;;;5064443;28;20433;-72
2020/12/10 14:47:31;;;;;;;21.87;12.07;;;;;;;;;;5070051;28;20444;-72
2020/12/10 14:49:57;;;;;;;27.40;12.17;;;;;;;;;;5069925;28;21143;-73